Time;durP1;ratioP1;P1;durP2;ratioP2;P2;SDS_P1;SDS_P2;PMS_P1;PMS_P2;Temp;Humidity;BMP_temperature;BMP_pressure;BME280_temperature;BME280_humidity;BME280_pressure;Samples;Min_cycle;Max_cycle;Signal;HPM_P1;HPM_P2
2022/12/05 00:00:53;;;;;;;15.77;9.13;;;4.20;99.90;;;;;;5025547;28;20456;-70
2022/12/05 00:03:20;;;;;;;16.80;8.50;;;4.20;99.90;;;;;;5013250;28;20546;-71
2022/12/05 00:05:45;;;;;;;14.00;8.33;;;4.20;99.90;;;;;;5026762;28;20531;-71
2022/12/05 00:08:11;;;;;;;14.57;8.43;;;4.20;99.90;;;;;;5020533;28;20531;-72
2022/12/05 00:10:38;;;;;;;15.97;8.57;;;4.10;99.90;;;;;;5020336;28;20280;-71
2022/12/05 00:13:04;;;;;;;14.73;7.63;;;4.10;99.90;;;;;;5023394;28;20308;-71
2022/12/05 00:15:30;;;;;;;13.10;6.90;;;4.20;99.90;;;;;;5019255;28;20487;-72
2022/12/05 00:17:55;;;;;;;11.13;6.97;;;4.10;99.90;;;;;;5012359;28;20483;-71
2022/12/05 00:20:24;;;;;;;15.20;8.27;;;4.10;99.90;;;;;;5005186;28;20691;-70
2022/12/05 00:22:50;;;;;;;14.37;7.50;;;4.10;99.90;;;;;;5022500;28;20238;-71
2022/12/05 00:25:15;;;;;;;13.93;7.23;;;4.10;99.90;;;;;;5004223;28;21083;-71
2022/12/05 00:27:41;;;;;;;14.70;7.20;;;4.00;99.90;;;;;;5016941;28;20224;-69
2022/12/05 00:30:07;;;;;;;16.67;8.17;;;4.00;99.90;;;;;;5028910;28;20359;-70
2022/12/05 00:32:33;;;;;;;15.70;8.67;;;4.10;99.90;;;;;;5026976;28;20239;-70
2022/12/05 00:34:58;;;;;;;16.27;6.90;;;4.10;99.90;;;;;;5028675;28;20868;-71
2022/12/05 00:37:24;;;;;;;12.60;6.63;;;4.20;99.90;;;;;;5023533;28;20227;-70
2022/12/05 00:39:50;;;;;;;11.10;7.03;;;4.10;99.90;;;;;;5024831;28;20235;-71
2022/12/05 00:42:16;;;;;;;15.40;6.60;;;4.10;99.90;;;;;;5000547;28;20247;-72
2022/12/05 00:44:41;;;;;;;15.27;8.13;;;4.20;99.90;;;;;;5010929;28;20842;-70
2022/12/05 00:47:07;;;;;;;13.57;7.93;;;4.20;99.90;;;;;;5025292;28;20244;-71
2022/12/05 00:49:33;;;;;;;12.20;7.10;;;4.20;99.90;;;;;;5028588;28;20224;-69
2022/12/05 00:51:58;;;;;;;13.40;7.30;;;4.20;99.90;;;;;;5031466;28;20220;-69
2022/12/05 00:54:24;;;;;;;14.57;8.00;;;4.20;99.90;;;;;;5025864;28;20229;-69
2022/12/05 00:56:55;;;;;;;12.63;6.27;;;4.20;99.90;;;;;;5022801;28;20303;-69
2022/12/05 00:59:21;;;;;;;11.40;7.43;;;4.10;99.90;;;;;;5009610;28;20299;-69
2022/12/05 01:01:48;;;;;;;12.73;6.13;;;4.10;99.90;;;;;;5026909;28;20524;-69
2022/12/05 01:04:20;;;;;;;14.83;6.97;;;4.10;99.90;;;;;;5027026;28;20466;-69
2022/12/05 01:06:46;;;;;;;9.67;6.93;;;4.00;99.90;;;;;;5019842;28;20521;-68
2022/12/05 01:09:14;;;;;;;15.20;7.63;;;4.00;99.90;;;;;;4976526;28;20453;-68
2022/12/05 01:11:40;;;;;;;13.53;7.87;;;4.10;99.90;;;;;;5006747;28;20232;-68
2022/12/05 01:14:06;;;;;;;10.47;6.63;;;4.10;99.90;;;;;;5028343;28;20487;-68
2022/12/05 01:16:34;;;;;;;10.70;6.97;;;4.10;99.90;;;;;;5029472;28;20458;-69
2022/12/05 01:19:03;;;;;;;14.03;6.73;;;4.10;99.90;;;;;;5003402;28;20224;-69
2022/12/05 01:21:29;;;;;;;12.93;6.90;;;4.20;99.90;;;;;;5020200;28;20456;-69
2022/12/05 01:23:55;;;;;;;11.67;6.57;;;4.20;99.90;;;;;;5010614;28;20466;-69
2022/12/05 01:26:22;;;;;;;11.20;7.20;;;4.20;99.90;;;;;;5008828;28;20307;-68
2022/12/05 01:28:49;;;;;;;13.33;7.80;;;4.20;99.90;;;;;;5020926;28;20448;-69
2022/12/05 01:31:20;;;;;;;9.80;5.87;;;4.20;99.90;;;;;;5016896;28;20499;-69
2022/12/05 01:33:46;;;;;;;10.90;6.50;;;4.20;99.90;;;;;;4993040;28;20878;-69
2022/12/05 01:36:12;;;;;;;14.00;7.30;;;4.20;99.90;;;;;;5039680;28;20452;-69
2022/12/05 01:38:42;;;;;;;14.30;6.40;;;4.20;99.90;;;;;;5020533;28;20513;-69
2022/12/05 01:41:11;;;;;;;14.53;6.53;;;4.10;99.90;;;;;;5030594;28;20298;-69
2022/12/05 01:44:01;;;;;;;20.43;8.70;;;4.20;99.90;;;;;;5029230;28;20474;-66
2022/12/05 01:46:30;;;;;;;10.63;6.63;;;4.20;99.90;;;;;;5005069;28;20468;-68
2022/12/05 01:49:38;;;;;;;11.97;6.50;;;4.20;99.90;;;;;;5022244;28;20892;-69
2022/12/05 01:52:10;;;;;;;15.07;7.30;;;4.20;99.90;;;;;;5018676;28;20459;-69
2022/12/05 01:54:37;;;;;;;16.37;8.30;;;4.20;99.90;;;;;;5016439;28;20983;-68
2022/12/05 01:57:06;;;;;;;16.73;6.60;;;4.20;99.90;;;;;;5024501;28;20451;-68
2022/12/05 01:59:37;;;;;;;15.43;7.33;;;4.20;99.90;;;;;;5030149;28;20444;-69
2022/12/05 02:02:03;;;;;;;11.10;6.37;;;4.20;99.90;;;;;;5021030;28;21073;-69
2022/12/05 02:04:30;;;;;;;13.10;7.20;;;4.20;99.90;;;;;;5014039;28;20444;-68
2022/12/05 02:06:55;;;;;;;18.53;7.63;;;4.20;99.90;;;;;;5008939;28;20451;-67
2022/12/05 02:09:22;;;;;;;18.30;7.93;;;4.20;99.90;;;;;;5027523;28;20505;-69
2022/12/05 02:11:54;;;;;;;10.63;6.63;;;4.20;99.90;;;;;;5020254;28;20224;-69
2022/12/05 02:14:35;;;;;;;11.90;6.80;;;4.20;99.90;;;;;;5026290;28;20455;-68
2022/12/05 02:17:00;;;;;;;15.10;7.40;;;4.20;99.90;;;;;;5020534;28;20887;-68
2022/12/05 02:19:53;;;;;;;15.10;7.50;;;4.20;99.90;;;;;;5019221;28;20471;-69
2022/12/05 02:22:45;;;;;;;11.37;6.80;;;4.10;99.90;;;;;;5027004;28;20287;-69
2022/12/05 02:25:49;;;;;;;14.43;6.00;;;4.10;99.90;;;;;;5029966;28;20447;-69
2022/12/05 02:28:50;;;;;;;12.07;6.40;;;4.10;99.90;;;;;;5018498;28;20456;-69
2022/12/05 02:31:27;;;;;;;18.40;6.10;;;4.10;99.90;;;;;;4996695;28;20521;-69
2022/12/05 02:34:05;;;;;;;7.40;5.13;;;4.10;99.90;;;;;;5026486;28;20553;-69
2022/12/05 02:37:02;;;;;;;12.87;5.87;;;4.10;99.90;;;;;;5019046;28;20456;-69
2022/12/05 02:39:40;;;;;;;8.63;5.53;;;4.00;99.90;;;;;;5019567;28;20939;-68
2022/12/05 02:42:19;;;;;;;8.57;5.10;;;4.00;99.90;;;;;;5009030;28;20458;-69
2022/12/05 02:45:08;;;;;;;10.37;5.90;;;4.00;99.90;;;;;;5012570;28;20487;-69
2022/12/05 02:47:39;;;;;;;8.37;4.40;;;3.90;99.90;;;;;;5010906;28;20444;-69
2022/12/05 02:50:07;;;;;;;7.20;5.00;;;3.90;99.90;;;;;;5023740;28;20502;-69
2022/12/05 02:52:34;;;;;;;11.33;6.33;;;4.00;99.90;;;;;;5012985;28;20459;-70
2022/12/05 02:55:01;;;;;;;9.10;5.17;;;4.10;99.90;;;;;;5023163;28;20474;-69
2022/12/05 02:57:28;;;;;;;6.20;4.13;;;4.10;99.90;;;;;;5020235;28;20440;-69
2022/12/05 02:59:53;;;;;;;9.63;5.53;;;4.10;99.90;;;;;;5010238;28;21118;-68
2022/12/05 03:02:25;;;;;;;6.90;4.57;;;4.20;99.90;;;;;;5025234;28;20545;-69
2022/12/05 03:04:51;;;;;;;9.23;4.97;;;4.20;99.90;;;;;;5005838;28;20221;-69
2022/12/05 03:07:21;;;;;;;8.67;4.97;;;4.20;99.90;;;;;;5012576;28;20883;-69
2022/12/05 03:09:51;;;;;;;6.83;4.80;;;4.20;99.90;;;;;;5004605;28;20889;-68
2022/12/05 03:12:26;;;;;;;7.47;4.27;;;4.20;99.90;;;;;;5007679;28;20449;-69
2022/12/05 03:15:03;;;;;;;5.97;4.00;;;4.20;99.90;;;;;;5012900;28;20455;-69
2022/12/05 03:17:34;;;;;;;7.70;4.43;;;4.20;99.90;;;;;;5032541;28;20497;-69
2022/12/05 03:20:10;;;;;;;8.10;5.10;;;4.20;99.90;;;;;;5020650;28;20455;-69
2022/12/05 03:22:38;;;;;;;7.10;4.27;;;4.20;99.90;;;;;;5029678;28;20451;-69
2022/12/05 03:25:04;;;;;;;6.33;4.00;;;4.20;99.90;;;;;;5027945;28;20509;-69
2022/12/05 03:27:45;;;;;;;9.30;4.20;;;4.20;99.90;;;;;;5013689;28;20452;-69
2022/12/05 03:30:14;;;;;;;6.97;4.50;;;4.20;99.90;;;;;;5015814;28;20510;-69
2022/12/05 03:33:30;;;;;;;6.90;4.70;;;4.20;99.90;;;;;;5032128;28;20530;-68
2022/12/05 03:36:01;;;;;;;5.10;3.60;;;4.20;99.90;;;;;;5022422;28;20443;-69
2022/12/05 03:38:36;;;;;;;6.10;3.57;;;4.20;99.90;;;;;;5026841;28;20463;-68
2022/12/05 03:41:13;;;;;;;5.20;4.00;;;4.20;99.90;;;;;;5028590;28;20502;-69
2022/12/05 03:43:45;;;;;;;10.10;4.37;;;4.20;99.90;;;;;;5018966;28;20464;-69
2022/12/05 03:46:17;;;;;;;6.73;4.23;;;4.20;99.90;;;;;;5002458;28;20456;-70
2022/12/05 03:48:52;;;;;;;8.07;4.43;;;4.20;99.90;;;;;;5028154;28;20778;-69
2022/12/05 03:51:21;;;;;;;6.67;4.30;;;4.20;99.90;;;;;;5024677;28;20463;-70
2022/12/05 03:54:00;;;;;;;10.40;6.23;;;4.20;99.90;;;;;;5031788;28;20486;-69
2022/12/05 03:56:37;;;;;;;7.77;5.10;;;4.20;99.90;;;;;;5007760;28;20543;-70
2022/12/05 03:59:38;;;;;;;10.20;5.93;;;4.20;99.90;;;;;;5009015;28;20487;-69
2022/12/05 04:02:09;;;;;;;9.80;5.03;;;4.20;99.90;;;;;;4989168;28;20469;-69
2022/12/05 04:04:46;;;;;;;9.47;5.23;;;4.20;99.90;;;;;;5008383;28;20451;-69
2022/12/05 04:07:14;;;;;;;10.17;5.33;;;4.30;99.90;;;;;;5018714;28;20509;-69
2022/12/05 04:09:50;;;;;;;7.27;5.20;;;4.20;99.90;;;;;;5028811;28;20479;-69
2022/12/05 04:12:23;;;;;;;10.23;5.80;;;4.20;99.90;;;;;;5010445;28;20446;-70
2022/12/05 04:14:53;;;;;;;9.70;5.30;;;4.20;99.90;;;;;;5012124;28;20480;-69
2022/12/05 04:17:44;;;;;;;10.90;5.57;;;4.30;99.90;;;;;;4993766;28;20453;-69
2022/12/05 04:23:24;;;;;;;11.33;6.57;;;4.20;99.90;;;;;;5016058;28;20467;-69
2022/12/05 04:26:05;;;;;;;8.13;5.37;;;4.20;99.90;;;;;;5021692;28;20454;-69
2022/12/05 04:28:38;;;;;;;12.90;7.20;;;4.20;99.90;;;;;;5021567;28;21057;-69
2022/12/05 04:31:17;;;;;;;8.77;4.40;;;4.20;99.90;;;;;;5011902;28;20483;-69
2022/12/05 04:33:50;;;;;;;9.20;5.57;;;4.20;99.90;;;;;;5018214;28;20464;-69
2022/12/05 04:36:37;;;;;;;10.20;5.00;;;4.10;99.90;;;;;;5025174;28;21040;-69
2022/12/05 04:39:07;;;;;;;10.83;5.47;;;4.10;99.90;;;;;;5027968;28;20455;-69
2022/12/05 04:41:56;;;;;;;6.87;4.53;;;4.10;99.90;;;;;;5019550;28;20482;-69
2022/12/05 04:44:27;;;;;;;7.80;4.60;;;4.20;99.90;;;;;;5023805;28;20491;-68
2022/12/05 04:46:55;;;;;;;9.60;5.07;;;4.10;99.90;;;;;;5029942;28;20802;-69
2022/12/05 04:49:25;;;;;;;8.90;4.40;;;4.00;99.90;;;;;;5003547;28;20551;-71
2022/12/05 04:51:54;;;;;;;8.57;4.47;;;4.00;99.90;;;;;;5011094;28;20466;-67
2022/12/05 04:54:26;;;;;;;10.60;5.70;;;4.10;99.90;;;;;;5013260;28;20462;-69
2022/12/05 04:56:58;;;;;;;12.03;5.90;;;4.10;99.90;;;;;;5010486;28;20460;-69
2022/12/05 04:59:23;;;;;;;10.50;5.70;;;4.10;99.90;;;;;;5016486;28;20503;-69
2022/12/05 05:01:55;;;;;;;11.33;6.03;;;4.20;99.90;;;;;;5003459;28;20960;-69
2022/12/05 05:04:29;;;;;;;10.40;5.27;;;4.20;99.90;;;;;;5012166;28;20235;-68
2022/12/05 05:06:55;;;;;;;10.00;5.00;;;4.20;99.90;;;;;;5010627;28;20535;-69
2022/12/05 05:09:21;;;;;;;11.67;5.77;;;4.20;99.90;;;;;;5028443;28;20515;-69
2022/12/05 05:11:47;;;;;;;8.00;5.20;;;4.20;99.90;;;;;;5005960;28;20297;-69
2022/12/05 05:14:12;;;;;;;16.30;6.70;;;4.20;99.90;;;;;;5024663;28;20227;-69
2022/12/05 05:16:40;;;;;;;10.20;6.00;;;4.20;99.90;;;;;;5024116;28;20538;-69
2022/12/05 05:19:07;;;;;;;10.83;6.23;;;4.20;99.90;;;;;;5017433;28;20241;-69
2022/12/05 05:21:35;;;;;;;12.80;6.23;;;4.20;99.90;;;;;;5025079;28;20459;-69
2022/12/05 05:24:02;;;;;;;14.33;6.93;;;4.20;99.90;;;;;;5019913;28;20455;-68
2022/12/05 05:26:29;;;;;;;12.30;6.63;;;4.30;99.90;;;;;;5015335;28;20468;-69
2022/12/05 05:28:57;;;;;;;12.33;7.10;;;4.30;99.90;;;;;;5022995;28;20847;-70
2022/12/05 05:31:22;;;;;;;12.93;6.20;;;4.30;99.90;;;;;;5027994;28;20518;-69
2022/12/05 05:33:53;;;;;;;20.23;8.63;;;4.30;99.90;;;;;;5027391;28;20487;-69
2022/12/05 05:36:20;;;;;;;13.80;7.67;;;4.30;99.90;;;;;;5020960;28;20263;-70
2022/12/05 05:38:48;;;;;;;14.43;6.83;;;4.30;99.90;;;;;;5002684;28;20462;-69
2022/12/05 05:41:16;;;;;;;14.27;7.13;;;4.30;99.90;;;;;;5028067;28;20468;-67
2022/12/05 05:43:42;;;;;;;14.47;7.47;;;4.30;99.90;;;;;;5023481;28;20482;-69
2022/12/05 05:46:08;;;;;;;12.63;6.60;;;4.30;99.90;;;;;;5007730;28;20503;-69
2022/12/05 05:48:34;;;;;;;12.80;6.57;;;4.30;99.90;;;;;;5016715;28;20464;-69
2022/12/05 05:51:01;;;;;;;17.37;10.53;;;4.30;99.90;;;;;;5027336;28;20865;-69
2022/12/05 05:53:26;;;;;;;15.27;7.47;;;4.30;99.90;;;;;;5023180;28;20232;-69
2022/12/05 05:55:52;;;;;;;10.23;5.97;;;4.30;99.90;;;;;;5023029;28;20455;-69
2022/12/05 05:58:18;;;;;;;15.50;7.70;;;4.30;99.90;;;;;;5020282;28;20220;-69
2022/12/05 06:00:43;;;;;;;15.93;8.23;;;4.30;99.90;;;;;;5007442;28;20406;-68
2022/12/05 06:03:09;;;;;;;17.73;8.03;;;4.30;99.90;;;;;;5024294;28;20243;-69
2022/12/05 06:05:35;;;;;;;17.60;8.10;;;4.30;99.90;;;;;;5019784;28;20223;-69
2022/12/05 06:08:01;;;;;;;15.90;7.60;;;4.40;99.90;;;;;;5016144;28;20248;-69
2022/12/05 06:10:28;;;;;;;15.47;8.83;;;4.40;99.90;;;;;;5018098;28;20216;-70
2022/12/05 06:12:54;;;;;;;14.83;7.30;;;4.40;99.90;;;;;;5014291;28;20913;-70
2022/12/05 06:15:20;;;;;;;20.07;9.43;;;4.40;99.90;;;;;;5014309;28;20529;-69
2022/12/05 06:17:46;;;;;;;17.70;7.93;;;4.40;99.90;;;;;;5015106;28;20854;-67
2022/12/05 06:20:12;;;;;;;17.87;8.50;;;4.40;99.90;;;;;;5020653;28;20240;-69
2022/12/05 06:22:41;;;;;;;21.73;9.63;;;4.40;99.90;;;;;;4995737;28;20213;-70
2022/12/05 06:25:07;;;;;;;15.97;8.40;;;4.40;99.90;;;;;;5018660;28;20463;-69
2022/12/05 06:27:33;;;;;;;15.17;7.37;;;4.40;99.90;;;;;;5010107;28;20482;-69
2022/12/05 06:29:59;;;;;;;20.93;7.87;;;4.40;99.90;;;;;;5021072;28;20494;-69
2022/12/05 06:32:27;;;;;;;18.20;9.30;;;4.40;99.90;;;;;;5027159;28;21040;-69
2022/12/05 06:34:52;;;;;;;19.73;9.20;;;4.40;99.90;;;;;;5015818;28;20474;-69
2022/12/05 06:37:18;;;;;;;20.67;8.10;;;4.40;99.90;;;;;;5017762;28;20463;-70
2022/12/05 06:39:44;;;;;;;12.93;7.57;;;4.40;99.90;;;;;;5022838;28;20250;-70
2022/12/05 06:42:09;;;;;;;14.90;7.30;;;4.40;99.90;;;;;;5009090;28;20304;-69
2022/12/05 06:44:35;;;;;;;22.23;9.10;;;4.40;99.90;;;;;;5021121;28;20232;-70
2022/12/05 06:47:01;;;;;;;15.53;7.70;;;4.40;99.90;;;;;;5021061;28;20272;-69
2022/12/05 06:49:31;;;;;;;12.87;7.53;;;4.40;99.90;;;;;;5015656;28;20223;-69
2022/12/05 06:51:58;;;;;;;16.20;7.90;;;4.40;99.90;;;;;;5015696;28;20240;-70
2022/12/05 06:54:24;;;;;;;21.03;8.50;;;4.40;99.90;;;;;;5017726;28;20475;-69
2022/12/05 06:56:49;;;;;;;19.63;9.50;;;4.40;99.90;;;;;;5030735;28;20462;-69
2022/12/05 06:59:15;;;;;;;20.00;8.80;;;4.40;99.90;;;;;;5031134;28;20216;-69
2022/12/05 07:01:41;;;;;;;18.83;9.23;;;4.40;99.90;;;;;;5026749;28;20274;-69
2022/12/05 07:04:09;;;;;;;14.90;8.03;;;4.40;99.90;;;;;;5003423;28;20700;-69
2022/12/05 07:06:36;;;;;;;14.87;8.10;;;4.40;99.90;;;;;;5024854;28;20274;-70
2022/12/05 07:09:02;;;;;;;19.00;9.60;;;4.40;99.90;;;;;;5011438;28;20460;-70
2022/12/05 07:11:27;;;;;;;16.10;8.67;;;4.40;99.90;;;;;;5031328;28;20463;-70
2022/12/05 07:13:53;;;;;;;18.30;8.20;;;4.40;99.90;;;;;;5014103;28;20471;-70
2022/12/05 07:16:19;;;;;;;13.90;8.13;;;4.40;99.90;;;;;;5031996;28;20703;-70
2022/12/05 07:18:45;;;;;;;19.97;8.10;;;4.40;99.90;;;;;;5021510;28;20221;-70
2022/12/05 07:21:13;;;;;;;16.10;9.07;;;4.40;99.90;;;;;;5001887;28;20308;-69
2022/12/05 07:23:40;;;;;;;22.03;10.67;;;4.40;99.90;;;;;;5019236;28;20590;-69
2022/12/05 07:26:07;;;;;;;10.80;7.07;;;4.40;99.90;;;;;;5021465;28;20453;-71
2022/12/05 07:28:33;;;;;;;18.27;9.77;;;4.40;99.90;;;;;;5017071;28;20456;-69
2022/12/05 07:31:04;;;;;;;21.00;8.33;;;4.40;99.90;;;;;;5023522;28;21056;-68
2022/12/05 07:33:30;;;;;;;18.33;7.93;;;4.40;99.90;;;;;;5029557;28;20220;-69
2022/12/05 07:36:01;;;;;;;13.80;7.90;;;4.40;99.90;;;;;;5021476;28;20459;-69
2022/12/05 07:38:28;;;;;;;12.50;7.80;;;4.40;99.90;;;;;;5030275;28;20220;-69
2022/12/05 07:40:53;;;;;;;16.90;8.97;;;4.40;99.90;;;;;;5012884;28;20467;-70
2022/12/05 07:43:19;;;;;;;20.50;8.80;;;4.40;99.90;;;;;;5026843;28;20463;-69
2022/12/05 07:45:45;;;;;;;15.00;8.13;;;4.40;99.90;;;;;;5023655;28;20565;-70
2022/12/05 07:48:10;;;;;;;15.50;7.73;;;4.50;99.90;;;;;;5018706;28;20684;-69
2022/12/05 07:50:36;;;;;;;17.63;9.33;;;4.50;99.90;;;;;;5029330;28;20226;-69
2022/12/05 07:53:02;;;;;;;20.30;8.67;;;4.40;99.90;;;;;;5031687;28;20247;-70
2022/12/05 07:55:28;;;;;;;16.67;10.17;;;4.50;99.90;;;;;;5003540;28;20444;-70
2022/12/05 07:57:54;;;;;;;15.53;8.97;;;4.50;99.90;;;;;;5008398;28;21026;-69
2022/12/05 08:00:20;;;;;;;16.13;9.00;;;4.50;99.90;;;;;;5023960;28;20307;-69
2022/12/05 08:02:46;;;;;;;19.33;9.37;;;4.50;99.90;;;;;;5006361;28;20598;-70
2022/12/05 08:05:12;;;;;;;16.63;8.83;;;4.50;99.90;;;;;;5023112;28;20464;-69
2022/12/05 08:07:37;;;;;;;19.00;9.03;;;4.50;99.90;;;;;;5022172;28;20260;-69
2022/12/05 08:10:03;;;;;;;14.37;7.97;;;4.50;99.90;;;;;;5013700;28;20259;-69
2022/12/05 08:12:29;;;;;;;16.23;9.20;;;4.50;99.90;;;;;;5010165;28;20216;-70
2022/12/05 08:14:55;;;;;;;26.70;9.80;;;4.50;99.90;;;;;;5025371;28;20498;-70
2022/12/05 08:17:20;;;;;;;21.40;9.00;;;4.50;99.90;;;;;;5011819;28;20319;-70
2022/12/05 08:19:46;;;;;;;23.90;10.83;;;4.50;99.90;;;;;;5022057;28;20334;-70
2022/12/05 08:22:12;;;;;;;25.33;11.73;;;4.50;99.90;;;;;;5027378;28;20213;-69
2022/12/05 08:24:37;;;;;;;18.63;9.43;;;4.50;99.90;;;;;;5019398;28;20228;-69
2022/12/05 08:27:04;;;;;;;20.43;10.30;;;4.50;99.90;;;;;;5015811;28;20223;-69
2022/12/05 08:29:30;;;;;;;20.37;9.43;;;4.50;99.90;;;;;;5000945;28;20606;-70
2022/12/05 08:31:55;;;;;;;18.53;9.67;;;4.40;99.90;;;;;;5023831;28;20467;-70
2022/12/05 08:34:21;;;;;;;14.63;8.80;;;4.50;99.90;;;;;;5004273;28;20260;-69
2022/12/05 08:36:47;;;;;;;18.47;8.50;;;4.50;99.90;;;;;;5011578;28;20267;-69
2022/12/05 08:39:15;;;;;;;17.43;8.63;;;4.50;99.90;;;;;;5021749;28;20471;-70
2022/12/05 08:41:45;;;;;;;21.50;7.50;;;4.40;99.90;;;;;;5026856;28;20974;-69
2022/12/05 08:44:15;;;;;;;16.60;8.70;;;4.30;99.90;;;;;;5007472;28;20468;-70
2022/12/05 08:46:41;;;;;;;17.03;8.47;;;4.40;99.90;;;;;;5026508;28;20450;-70
2022/12/05 08:49:07;;;;;;;18.73;8.70;;;4.40;99.90;;;;;;5027364;28;20450;-69
2022/12/05 08:51:33;;;;;;;17.57;9.00;;;4.40;99.90;;;;;;5028113;28;20496;-69
2022/12/05 08:54:02;;;;;;;18.50;9.27;;;4.50;99.90;;;;;;5033336;28;20519;-70
2022/12/05 08:56:28;;;;;;;20.17;8.87;;;4.50;99.90;;;;;;5019512;28;20459;-70
2022/12/05 08:58:55;;;;;;;14.47;8.10;;;4.50;99.90;;;;;;5030285;28;20457;-70
2022/12/05 09:01:21;;;;;;;14.07;8.53;;;4.50;99.90;;;;;;5013714;28;20510;-69
2022/12/05 09:03:47;;;;;;;13.53;8.20;;;4.50;99.90;;;;;;5012077;28;20458;-69
2022/12/05 09:06:21;;;;;;;19.37;9.33;;;4.50;99.90;;;;;;5019468;28;20467;-69
2022/12/05 09:08:52;;;;;;;19.37;8.70;;;4.50;99.90;;;;;;5020534;28;20442;-70
2022/12/05 09:11:20;;;;;;;11.40;7.50;;;4.60;99.90;;;;;;5019786;28;20532;-70
2022/12/05 09:13:47;;;;;;;18.37;8.97;;;4.60;99.90;;;;;;5026487;28;20499;-69
2022/12/05 09:16:16;;;;;;;15.97;7.93;;;4.60;99.90;;;;;;5022023;28;20455;-69
2022/12/05 09:18:42;;;;;;;16.77;9.87;;;4.60;99.90;;;;;;5021023;28;20811;-69
2022/12/05 09:21:10;;;;;;;18.20;9.13;;;4.60;99.90;;;;;;5002284;28;20459;-69
2022/12/05 09:23:36;;;;;;;16.50;9.17;;;4.60;99.90;;;;;;5015494;28;20463;-70
2022/12/05 09:26:04;;;;;;;17.03;8.90;;;4.60;99.90;;;;;;5022813;28;20456;-68
2022/12/05 09:28:30;;;;;;;17.03;8.87;;;4.60;99.90;;;;;;5020937;28;20462;-70
2022/12/05 09:31:18;;;;;;;18.77;9.67;;;4.60;99.90;;;;;;5021497;28;20471;-69
2022/12/05 09:33:44;;;;;;;16.90;8.80;;;4.60;99.90;;;;;;5028971;28;20513;-69
2022/12/05 09:36:17;;;;;;;21.80;9.83;;;4.60;99.90;;;;;;5013838;28;20454;-69
2022/12/05 09:38:44;;;;;;;20.50;9.93;;;4.70;99.90;;;;;;4997158;28;20448;-70
2022/12/05 09:44:46;;;;;;;12.70;8.53;;;4.70;99.90;;;;;;5008925;28;20476;-70
2022/12/05 09:47:32;;;;;;;12.27;7.37;;;4.60;99.90;;;;;;5023201;28;20452;-69
2022/12/05 09:50:03;;;;;;;11.87;7.20;;;4.60;99.90;;;;;;5018996;28;20518;-70
2022/12/05 09:52:38;;;;;;;11.20;6.80;;;4.60;99.90;;;;;;5019192;28;20505;-70
2022/12/05 09:55:10;;;;;;;15.63;7.30;;;4.60;99.90;;;;;;5025472;28;20859;-69
2022/12/05 09:57:51;;;;;;;10.67;6.50;;;4.60;99.90;;;;;;5023261;28;20456;-69
2022/12/05 10:00:17;;;;;;;10.30;7.07;;;4.60;99.90;;;;;;5006757;28;20455;-70
2022/12/05 10:03:02;;;;;;;13.67;7.67;;;4.70;99.90;;;;;;5009126;28;20521;-70
2022/12/05 10:05:34;;;;;;;11.53;7.20;;;4.70;99.90;;;;;;5004575;28;20472;-70
2022/12/05 10:08:05;;;;;;;11.60;6.43;;;4.70;99.90;;;;;;5021817;28;20482;-69
2022/12/05 10:10:51;;;;;;;14.40;6.77;;;4.70;99.90;;;;;;5022498;28;20483;-70
2022/12/05 10:13:26;;;;;;;13.67;6.63;;;4.70;99.90;;;;;;5019271;28;20463;-70
2022/12/05 10:15:55;;;;;;;10.63;5.30;;;4.80;99.90;;;;;;5009377;28;20450;-69
2022/12/05 10:18:32;;;;;;;10.50;6.30;;;4.80;99.90;;;;;;5010415;28;20831;-70
2022/12/05 10:21:07;;;;;;;13.47;6.83;;;4.80;99.90;;;;;;5020349;28;20443;-69
2022/12/05 10:23:54;;;;;;;17.67;7.50;;;4.80;99.90;;;;;;5004333;28;20539;-69
2022/12/05 10:26:22;;;;;;;12.77;7.80;;;4.80;99.90;;;;;;5026292;28;21078;-70
2022/12/05 10:29:08;;;;;;;12.47;5.37;;;4.80;99.90;;;;;;5025706;28;20440;-68
2022/12/05 10:31:36;;;;;;;13.00;7.10;;;4.80;99.90;;;;;;5034529;28;20490;-70
2022/12/05 10:34:17;;;;;;;20.57;8.30;;;4.80;99.90;;;;;;5025674;28;20489;-69
2022/12/05 10:37:03;;;;;;;20.37;9.90;;;4.80;99.90;;;;;;5002794;28;20923;-69
2022/12/05 10:39:28;;;;;;;16.10;9.90;;;4.80;99.90;;;;;;5027111;28;20457;-70
2022/12/05 10:41:55;;;;;;;62.13;28.60;;;4.80;99.90;;;;;;5028823;28;20852;-70
2022/12/05 10:44:21;;;;;;;186.57;70.87;;;4.80;99.90;;;;;;5026873;28;20703;-70
2022/12/05 10:46:47;;;;;;;140.70;62.33;;;4.80;99.90;;;;;;5004297;28;20539;-69
2022/12/05 10:49:13;;;;;;;151.27;57.77;;;4.80;99.90;;;;;;5029236;28;20225;-70
2022/12/05 10:51:39;;;;;;;148.30;65.07;;;4.70;99.90;;;;;;5018502;28;20510;-69
2022/12/05 10:54:28;;;;;;;114.17;50.70;;;4.80;99.90;;;;;;5029486;28;20300;-70
2022/12/05 10:56:54;;;;;;;75.30;38.13;;;4.90;99.90;;;;;;5026581;28;20455;-70
2022/12/05 10:59:24;;;;;;;58.30;27.40;;;4.90;99.90;;;;;;5007677;28;20455;-69
2022/12/05 11:01:55;;;;;;;30.20;16.13;;;4.90;99.90;;;;;;5023546;28;20225;-69
2022/12/05 11:04:30;;;;;;;26.17;12.13;;;4.90;99.90;;;;;;5024603;28;20489;-70
2022/12/05 11:07:00;;;;;;;19.53;10.00;;;5.00;99.90;;;;;;5021929;28;20455;-69
2022/12/05 11:09:37;;;;;;;16.90;9.60;;;5.00;99.90;;;;;;5024833;28;20491;-69
2022/12/05 11:12:19;;;;;;;20.60;9.67;;;5.00;99.90;;;;;;5015087;28;20574;-70
2022/12/05 11:15:00;;;;;;;33.97;17.50;;;5.00;99.90;;;;;;5013871;28;20460;-69
2022/12/05 11:17:30;;;;;;;36.60;19.53;;;5.00;99.90;;;;;;5012283;28;20463;-70
2022/12/05 11:19:56;;;;;;;27.00;13.90;;;5.00;99.90;;;;;;5021795;28;20474;-70
2022/12/05 11:22:31;;;;;;;23.40;13.27;;;5.10;99.90;;;;;;5001603;28;20817;-70
2022/12/05 11:24:56;;;;;;;20.27;8.93;;;5.10;99.90;;;;;;5012125;28;20220;-70
2022/12/05 11:27:29;;;;;;;12.37;6.67;;;5.10;99.90;;;;;;5030445;28;20477;-70
2022/12/05 11:30:03;;;;;;;13.60;6.07;;;5.10;99.90;;;;;;5008373;28;20577;-70
2022/12/05 11:32:31;;;;;;;9.47;5.77;;;5.10;99.90;;;;;;5026320;28;20484;-69
2022/12/05 11:35:12;;;;;;;10.87;6.70;;;5.20;99.90;;;;;;5022267;28;20459;-70
2022/12/05 11:37:44;;;;;;;9.03;6.57;;;5.20;99.90;;;;;;5022120;28;20466;-70
2022/12/05 11:40:44;;;;;;;11.57;6.70;;;5.20;99.90;;;;;;5025699;28;20462;-70
2022/12/05 11:43:40;;;;;;;13.30;6.97;;;5.20;99.90;;;;;;5024862;28;20554;-71
2022/12/05 11:46:27;;;;;;;12.93;6.53;;;5.20;99.90;;;;;;5026103;28;20448;-70
2022/12/05 11:49:07;;;;;;;9.57;6.20;;;5.20;99.90;;;;;;5003149;28;20465;-70
2022/12/05 11:51:42;;;;;;;10.97;7.10;;;5.20;99.90;;;;;;5037514;28;20490;-70
2022/12/05 11:54:10;;;;;;;9.83;5.37;;;5.20;99.90;;;;;;5022608;28;20460;-70
2022/12/05 11:56:53;;;;;;;10.33;5.07;;;5.30;99.90;;;;;;5009710;28;20474;-70
2022/12/05 11:59:37;;;;;;;11.27;6.63;;;5.20;99.90;;;;;;5002788;28;20448;-70
2022/12/05 12:02:17;;;;;;;10.23;6.20;;;5.30;99.90;;;;;;5027380;28;20498;-69
2022/12/05 12:05:06;;;;;;;8.80;6.20;;;5.30;99.90;;;;;;5019518;28;20462;-67
2022/12/05 12:07:41;;;;;;;7.83;5.17;;;5.30;99.90;;;;;;5006832;28;20514;-70
2022/12/05 12:10:35;;;;;;;39.17;19.37;;;5.30;99.90;;;;;;5019868;28;20521;-70
2022/12/05 12:13:07;;;;;;;36.77;19.80;;;5.30;99.90;;;;;;5021358;28;20474;-71
2022/12/05 12:15:52;;;;;;;24.13;12.33;;;5.30;99.90;;;;;;5007175;28;20463;-68
2022/12/05 12:18:36;;;;;;;36.40;16.77;;;5.40;99.90;;;;;;5010511;28;20446;-69
2022/12/05 12:21:26;;;;;;;51.80;21.53;;;5.40;99.90;;;;;;5026737;28;20448;-69
2022/12/05 12:24:12;;;;;;;43.63;20.37;;;5.40;99.90;;;;;;5019444;28;20452;-70
2022/12/05 12:27:03;;;;;;;31.30;16.10;;;5.40;99.90;;;;;;5019505;28;20467;-69
2022/12/05 12:29:49;;;;;;;25.27;14.10;;;5.40;99.90;;;;;;5011301;28;20466;-70
2022/12/05 12:32:40;;;;;;;17.60;10.10;;;5.50;99.90;;;;;;5001877;28;20447;-70
2022/12/05 12:35:27;;;;;;;29.33;13.90;;;5.50;99.90;;;;;;5026628;28;20470;-69
2022/12/05 12:38:07;;;;;;;32.43;15.70;;;5.50;99.90;;;;;;5019185;28;20443;-70
2022/12/05 12:40:46;;;;;;;30.60;13.67;;;5.50;99.90;;;;;;4997844;28;20463;-70
2022/12/05 12:43:31;;;;;;;29.10;14.27;;;5.50;99.90;;;;;;5021369;28;20461;-70
2022/12/05 12:46:24;;;;;;;31.47;14.73;;;5.50;99.90;;;;;;5025548;28;20503;-71
2022/12/05 12:49:28;;;;;;;24.60;10.33;;;5.40;99.90;;;;;;5014829;28;20447;-69
2022/12/05 12:52:10;;;;;;;19.60;9.83;;;5.50;99.90;;;;;;5021031;28;20483;-69
2022/12/05 12:54:56;;;;;;;16.80;9.10;;;5.50;99.90;;;;;;5016811;28;20478;-70
2022/12/05 12:57:49;;;;;;;12.57;8.13;;;5.50;99.90;;;;;;5024533;28;20599;-69
2022/12/05 13:00:44;;;;;;;12.07;8.17;;;5.50;99.90;;;;;;5014182;28;21002;-70
2022/12/05 13:03:18;;;;;;;12.43;6.77;;;5.50;99.90;;;;;;5026130;28;20466;-70
2022/12/05 13:05:57;;;;;;;14.37;8.33;;;5.50;99.90;;;;;;5020932;28;20534;-70
2022/12/05 13:08:47;;;;;;;12.10;7.13;;;5.50;99.90;;;;;;5024427;28;20451;-70
2022/12/05 13:11:16;;;;;;;9.53;6.40;;;5.60;99.90;;;;;;5020806;28;20569;-70
2022/12/05 13:13:46;;;;;;;12.70;6.93;;;5.60;99.90;;;;;;5024687;28;20548;-68
2022/12/05 13:16:22;;;;;;;13.50;6.40;;;5.60;99.90;;;;;;5022600;28;20487;-70
2022/12/05 13:18:48;;;;;;;10.40;6.13;;;5.60;99.90;;;;;;5024713;28;20533;-70